createdAt,value
2023-02-26T00:00:53.680Z,18.6
2023-02-26T00:06:46.572Z,18.5
2023-02-26T00:12:26.402Z,18.4
2023-02-26T00:18:21.039Z,18.3
2023-02-26T00:24:13.314Z,18.2
2023-02-26T00:30:06.764Z,18.3
2023-02-26T00:36:00.175Z,18.4
2023-02-26T00:41:53.582Z,18.4
2023-02-26T00:47:47.188Z,18.3
2023-02-26T00:53:39.556Z,18.1
2023-02-26T00:59:31.098Z,18
2023-02-26T01:05:24.159Z,18
2023-02-26T01:11:16.944Z,18.2
2023-02-26T01:17:09.327Z,18.3
2023-02-26T01:23:03.766Z,18.2
2023-02-26T01:28:56.819Z,18.1
2023-02-26T01:34:50.845Z,17.9
2023-02-26T01:40:44.407Z,17.9
2023-02-26T01:46:37.564Z,18.1
2023-02-26T01:52:30.681Z,18.1
2023-02-26T01:58:24.686Z,18.1
2023-02-26T02:04:17.062Z,18
2023-02-26T02:10:09.530Z,17.9
2023-02-26T02:15:47.357Z,17.9
2023-02-26T02:21:24.511Z,18.1
2023-02-26T02:27:17.518Z,18.1
2023-02-26T02:33:12.669Z,18
2023-02-26T02:39:05.670Z,17.9
2023-02-26T02:44:58.843Z,17.8
2023-02-26T02:50:54.096Z,17.9
2023-02-26T02:56:46.458Z,18
2023-02-26T03:02:39.611Z,18
2023-02-26T03:08:34.052Z,17.9
2023-02-26T03:14:26.842Z,17.8
2023-02-26T03:20:20.606Z,17.8
2023-02-26T03:26:13.746Z,17.9
2023-02-26T03:32:06.971Z,17.9
2023-02-26T03:37:59.456Z,17.9
2023-02-26T03:43:36.951Z,17.8
2023-02-26T03:49:29.815Z,17.8
2023-02-26T03:55:07.271Z,17.8
2023-02-26T04:01:00.756Z,17.9
2023-02-26T04:06:38.871Z,18.1
2023-02-26T04:12:18.469Z,17.9
2023-02-26T04:17:56.530Z,17.8
2023-02-26T04:23:49.439Z,17.8
2023-02-26T04:29:41.765Z,17.8
2023-02-26T04:35:35.558Z,17.9
2023-02-26T04:41:12.468Z,17.9
2023-02-26T04:47:06.052Z,17.8
2023-02-26T04:52:44.037Z,17.8
2023-02-26T04:58:22.872Z,17.7
2023-02-26T05:03:43.709Z,17.8
2023-02-26T05:09:37.372Z,17.9
2023-02-26T05:15:30.761Z,17.9
2023-02-26T05:21:26.183Z,17.8
2023-02-26T05:27:19.503Z,17.7
2023-02-26T05:33:13.049Z,17.6
2023-02-26T05:39:05.828Z,17.8
2023-02-26T05:44:58.627Z,17.8
2023-02-26T05:50:52.455Z,17.8
2023-02-26T05:56:29.410Z,17.6
2023-02-26T06:02:22.224Z,17.6
2023-02-26T06:08:14.606Z,17.7
2023-02-26T06:14:06.162Z,17.8
2023-02-26T06:20:00.113Z,17.7
2023-02-26T06:25:51.776Z,17.6
2023-02-26T06:31:45.757Z,17.5
2023-02-26T06:37:23.670Z,17.6
2023-02-26T06:43:02.157Z,17.7
2023-02-26T06:48:54.423Z,17.8
2023-02-26T06:54:47.355Z,17.7
2023-02-26T07:00:39.807Z,17.6
2023-02-26T07:06:51.824Z,17.4
2023-02-26T07:12:47.903Z,17.4
2023-02-26T07:18:41.086Z,17.6
2023-02-26T07:24:34.536Z,17.6
2023-02-26T07:30:30.006Z,17.4
2023-02-26T07:36:23.562Z,17.3
2023-02-26T07:42:15.256Z,17.3
2023-02-26T07:47:53.407Z,17.2
2023-02-26T07:53:45.316Z,17.1
2023-02-26T07:59:37.661Z,17.3
2023-02-26T08:05:31.112Z,17.4
2023-02-26T08:11:23.567Z,17.4
2023-02-26T08:17:16.861Z,17.3
2023-02-26T08:22:55.909Z,17.3
2023-02-26T08:28:32.777Z,17.2
2023-02-26T08:34:26.163Z,17.1
2023-02-26T08:40:04.405Z,17.3
2023-02-26T08:45:43.602Z,17.4
2023-02-26T08:51:48.023Z,17.4
2023-02-26T08:57:40.865Z,17.4
2023-02-26T09:03:33.044Z,17.3
2023-02-26T09:09:29.220Z,17.3
2023-02-26T09:15:07.207Z,17.3
2023-02-26T09:21:00.506Z,17.2
2023-02-26T09:26:53.399Z,17.2
2023-02-26T09:32:31.851Z,17.1
2023-02-26T09:38:24.411Z,17.1
2023-02-26T09:44:18.561Z,17.1
2023-02-26T09:55:47.967Z,16.9
2023-02-26T10:01:39.830Z,16.8
2023-02-26T10:07:33.991Z,16.8
2023-02-26T10:13:26.207Z,16.7
2023-02-26T10:18:46.422Z,16.7
2023-02-26T10:24:40.380Z,16.8
2023-02-26T10:30:33.368Z,16.8
2023-02-26T10:35:59.018Z,16.8
2023-02-26T10:41:52.381Z,16.8
2023-02-26T10:47:29.847Z,16.8
2023-02-26T10:52:51.293Z,16.8
2023-02-26T10:58:29.332Z,16.7
2023-02-26T11:04:06.482Z,16.7
2023-02-26T11:09:49.207Z,16.7
2023-02-26T11:15:44.376Z,16.6
2023-02-26T11:21:37.326Z,16.6
2023-02-26T11:27:31.545Z,16.6
2023-02-26T11:33:27.970Z,16.6
2023-02-26T11:39:24.423Z,16.6
2023-02-26T11:45:00.976Z,16.5
2023-02-26T11:50:39.277Z,16.5
2023-02-26T11:56:00.849Z,16.5
2023-02-26T12:01:39.847Z,16.5
2023-02-26T12:07:33.509Z,16.4
2023-02-26T12:13:27.238Z,16.4
2023-02-26T12:19:06.077Z,16.4
2023-02-26T12:25:00.205Z,16.4
2023-02-26T12:30:37.149Z,16.4
2023-02-26T12:36:40.104Z,16.4
2023-02-26T12:42:40.942Z,16.3
2023-02-26T12:48:18.345Z,16.3
2023-02-26T12:54:11.158Z,16.3
2023-02-26T13:00:04.814Z,16.3
2023-02-26T13:06:08.226Z,16.3
2023-02-26T13:12:00.517Z,16.3
2023-02-26T13:17:53.554Z,16.3
2023-02-26T13:23:46.118Z,16.3
2023-02-26T13:29:37.541Z,16.3
2023-02-26T13:35:36.426Z,16.3
2023-02-26T13:41:29.321Z,16.3
2023-02-26T13:47:06.054Z,16.3
2023-02-26T13:52:12.904Z,16.3
2023-02-26T13:57:34.522Z,16.3
2023-02-26T14:03:12.847Z,16.3
2023-02-26T14:08:50.340Z,16.3
2023-02-26T14:14:29.349Z,16.3
2023-02-26T14:20:22.096Z,16.3
2023-02-26T14:26:15.078Z,16.3
2023-02-26T14:32:09.512Z,16.3
2023-02-26T14:38:02.117Z,16.3
2023-02-26T14:43:58.868Z,16.3
2023-02-26T14:49:51.664Z,16.3
2023-02-26T14:55:44.355Z,16.3
2023-02-26T15:01:36.303Z,16.3
2023-02-26T15:07:29.207Z,16.3
2023-02-26T15:13:24.500Z,16.3
2023-02-26T15:19:18.133Z,16.2
2023-02-26T15:25:11.473Z,16.2
2023-02-26T15:31:05.019Z,16.2
2023-02-26T15:36:59.878Z,16.2
2023-02-26T15:42:53.153Z,16.2
2023-02-26T15:48:53.786Z,16.2
2023-02-26T15:54:47.255Z,16.2
2023-02-26T16:00:40.332Z,16.2
2023-02-26T16:06:17.568Z,16.2
2023-02-26T16:12:10.384Z,16.2
2023-02-26T16:18:03.868Z,16.1
2023-02-26T16:23:57.192Z,16.1
2023-02-26T16:29:50.708Z,16.1
2023-02-26T16:35:29.469Z,16.1
2023-02-26T16:41:07.442Z,16.1
2023-02-26T16:46:46.248Z,16.1
2023-02-26T16:52:10.144Z,16.1
2023-02-26T16:57:31.753Z,16.1
2023-02-26T17:03:12.541Z,16.1
2023-02-26T17:09:07.477Z,16.1
2023-02-26T17:15:03.096Z,16.1
2023-02-26T17:20:58.364Z,16.1
2023-02-26T17:26:51.312Z,16.1
2023-02-26T17:32:45.139Z,16.1
2023-02-26T17:38:38.890Z,16.1
2023-02-26T17:44:31.771Z,16.1
2023-02-26T17:50:25.209Z,16.1
2023-02-26T17:56:19.001Z,16.1
2023-02-26T18:02:12.798Z,16.1
2023-02-26T18:08:07.100Z,16
2023-02-26T18:14:00.545Z,16
2023-02-26T18:19:54.127Z,16.1
2023-02-26T18:25:46.880Z,16
2023-02-26T18:31:41.272Z,16
2023-02-26T18:37:34.244Z,16
2023-02-26T18:43:27.265Z,16
2023-02-26T18:49:20.752Z,16
2023-02-26T18:55:13.580Z,16
2023-02-26T19:01:10.584Z,15.9
2023-02-26T19:07:04.864Z,16
2023-02-26T19:12:57.195Z,16
2023-02-26T19:18:51.350Z,16
2023-02-26T19:24:45.030Z,16
2023-02-26T19:30:41.344Z,16
2023-02-26T19:36:39.483Z,15.9
2023-02-26T19:42:33.574Z,15.9
2023-02-26T19:48:27.321Z,15.9
2023-02-26T19:54:19.609Z,15.9
2023-02-26T20:00:12.915Z,15.9
2023-02-26T20:06:06.759Z,15.9
2023-02-26T20:12:01.612Z,15.9
2023-02-26T20:17:55.557Z,15.9
2023-02-26T20:23:48.842Z,15.9
2023-02-26T20:29:25.645Z,15.9
2023-02-26T20:35:23.675Z,15.9
2023-02-26T20:41:18.845Z,15.9
2023-02-26T20:47:12.427Z,15.9
2023-02-26T20:53:06.379Z,15.9
2023-02-26T20:58:44.421Z,16.1
2023-02-26T21:04:22.287Z,16.6
2023-02-26T21:10:16.087Z,16.9
2023-02-26T21:16:08.772Z,17.1
2023-02-26T21:22:02.200Z,17.3
2023-02-26T21:27:57.373Z,17.3
2023-02-26T21:33:50.792Z,17.3
2023-02-26T21:40:09.345Z,17.4
2023-02-26T21:46:03.508Z,17.7
2023-02-26T21:51:57.173Z,17.8
2023-02-26T21:57:49.692Z,17.7
2023-02-26T22:03:43.153Z,17.8
2023-02-26T22:09:36.005Z,17.8
2023-02-26T22:15:28.816Z,17.8
2023-02-26T22:21:21.157Z,17.7
2023-02-26T22:27:13.524Z,17.8
2023-02-26T22:33:06.307Z,17.9
2023-02-26T22:38:59.026Z,17.9
2023-02-26T22:44:52.248Z,17.8
2023-02-26T22:50:44.332Z,17.8
2023-02-26T22:56:37.028Z,17.9
2023-02-26T23:02:30.218Z,17.9
2023-02-26T23:08:23.136Z,17.8
2023-02-26T23:14:16.111Z,17.8
2023-02-26T23:20:08.859Z,17.9
2023-02-26T23:26:00.585Z,17.9
2023-02-26T23:31:53.481Z,17.9
2023-02-26T23:37:45.867Z,17.7
2023-02-26T23:43:38.436Z,17.8
2023-02-26T23:49:31.113Z,17.9
2023-02-26T23:55:22.768Z,17.9
